Terminal Aerodrome Forecast
Issued by NWS Tallahassee, FL

Home | Current Version | Previous Version | Text Only | Print | Product List | Glossary On
Versions: 1 2 3 4 5 6 7 8 9 10 11 12 13 14 15
000
FTUS42 KTAE 181700 RRA
TAFTLH
TAF
KTLH 181752Z 1818/1918 06010G15KT 3SM RA SCT008 OVC010
     FM182200 22008KT 5SM -DZ BR OVC007
     FM190200 33010KT P6SM OVC007
     FM191400 34010G15KT P6SM OVC020=

USA.gov is the U.S. government's official web portal to all federal, state and local government web resources and services.